createdAt,value
2022-11-17T00:00:58.352Z,55.11
2022-11-17T00:01:58.380Z,68.48
2022-11-17T00:02:58.325Z,61.39
2022-11-17T00:03:58.319Z,54.14
2022-11-17T00:04:58.305Z,54.79
2022-11-17T00:05:58.508Z,54.46
2022-11-17T00:06:58.333Z,53.33
2022-11-17T00:07:58.278Z,67.19
2022-11-17T00:08:59.290Z,62.04
2022-11-17T00:09:58.261Z,64.45
2022-11-17T00:10:58.260Z,68.64
2022-11-17T00:11:59.242Z,72.51
2022-11-17T00:12:58.241Z,62.20
2022-11-17T00:13:58.228Z,64.13
2022-11-17T00:14:58.218Z,62.20
2022-11-17T00:15:58.221Z,64.13
2022-11-17T00:16:58.198Z,66.23
2022-11-17T00:17:58.198Z,61.55
2022-11-17T00:18:58.197Z,72.19
2022-11-17T00:19:58.194Z,64.13
2022-11-17T00:20:58.277Z,69.61
2022-11-17T00:21:58.172Z,59.14
2022-11-17T00:22:58.172Z,69.45
2022-11-17T00:23:58.146Z,66.39
2022-11-17T00:24:58.145Z,69.13
2022-11-17T00:25:58.146Z,61.55
2022-11-17T00:26:58.132Z,67.35
2022-11-17T00:29:57.678Z,58.17
2022-11-17T00:30:58.765Z,61.23
2022-11-17T00:31:58.758Z,66.39
2022-11-17T00:32:58.745Z,69.29
2022-11-17T00:33:58.766Z,58.65
2022-11-17T00:34:58.735Z,55.43
2022-11-17T00:35:58.727Z,67.19
2022-11-17T00:36:58.821Z,68.00
2022-11-17T00:37:58.707Z,59.78
2022-11-17T00:38:59.544Z,66.55
2022-11-17T00:40:00.994Z,68.80
2022-11-17T00:40:59.680Z,67.84
2022-11-17T00:41:58.684Z,69.13
2022-11-17T00:42:58.666Z,61.87
2022-11-17T00:43:58.653Z,74.12
2022-11-17T00:44:58.683Z,67.35
2022-11-17T00:45:58.645Z,69.45
2022-11-17T00:46:58.627Z,55.91
2022-11-17T00:47:58.623Z,54.30
2022-11-17T00:48:58.614Z,62.04
2022-11-17T00:49:58.615Z,72.67
2022-11-17T00:50:58.601Z,64.94
2022-11-17T00:51:58.599Z,63.16
2022-11-17T00:52:58.678Z,62.84
2022-11-17T00:53:58.574Z,64.29
2022-11-17T00:54:58.654Z,57.85
2022-11-17T00:55:58.568Z,61.23
2022-11-17T00:56:58.564Z,58.33
2022-11-17T00:57:58.543Z,56.24
2022-11-17T00:58:58.543Z,53.17
2022-11-17T00:59:58.531Z,55.43
2022-11-17T01:00:58.525Z,52.37
2022-11-17T01:01:58.590Z,70.25
2022-11-17T01:02:58.501Z,57.52
2022-11-17T01:03:58.496Z,57.52
2022-11-17T01:04:58.486Z,63.81
2022-11-17T01:05:58.483Z,49.31
2022-11-17T01:06:58.549Z,63.33
2022-11-17T01:07:58.461Z,64.29
2022-11-17T01:08:58.463Z,60.75
2022-11-17T01:09:58.442Z,65.10
2022-11-17T01:10:58.441Z,49.95
2022-11-17T01:11:58.435Z,53.01
2022-11-17T01:12:58.424Z,59.62
2022-11-17T01:13:58.415Z,62.68
2022-11-17T01:14:58.410Z,60.10
2022-11-17T01:15:58.409Z,62.84
2022-11-17T01:16:58.398Z,70.74
2022-11-17T01:17:58.382Z,65.58
2022-11-17T01:18:58.382Z,63.16
2022-11-17T01:19:58.365Z,64.61
2022-11-17T01:20:58.358Z,62.68
2022-11-17T01:21:58.350Z,67.51
2022-11-17T01:22:58.342Z,64.94
2022-11-17T01:23:58.344Z,62.52
2022-11-17T01:24:58.444Z,63.16
2022-11-17T01:26:00.047Z,63.16
2022-11-17T01:26:58.307Z,50.27
2022-11-17T01:27:58.319Z,50.76
2022-11-17T01:28:58.308Z,62.84
2022-11-17T01:29:58.311Z,68.48
2022-11-17T01:30:58.286Z,65.74
2022-11-17T01:31:58.270Z,68.64
2022-11-17T01:33:00.056Z,62.20
2022-11-17T01:33:58.262Z,62.84
2022-11-17T01:34:58.245Z,69.45
2022-11-17T01:35:58.244Z,57.36
2022-11-17T01:36:58.213Z,55.11
2022-11-17T01:37:59.230Z,62.84
2022-11-17T01:38:58.213Z,65.26
2022-11-17T01:39:58.211Z,60.59
2022-11-17T01:40:58.294Z,48.66
2022-11-17T01:41:58.200Z,66.39
2022-11-17T01:42:58.180Z,67.68
2022-11-17T01:43:58.169Z,62.52
2022-11-17T01:45:00.053Z,66.39
2022-11-17T01:45:58.155Z,59.94
2022-11-17T01:47:00.882Z,63.49
2022-11-17T01:47:59.136Z,59.14
2022-11-17T01:48:58.136Z,69.13
2022-11-17T01:49:58.129Z,63.33
2022-11-17T01:50:58.125Z,62.52
2022-11-17T01:51:58.107Z,62.36
2022-11-17T01:52:58.097Z,59.62
2022-11-17T01:53:58.090Z,59.46
2022-11-17T01:54:58.087Z,61.39
2022-11-17T01:55:58.079Z,59.94
2022-11-17T01:56:58.155Z,64.61
2022-11-17T01:57:58.064Z,62.20
2022-11-17T01:58:58.047Z,60.10
2022-11-17T01:59:58.632Z,67.03
2022-11-17T02:00:58.059Z,53.17
2022-11-17T02:01:58.087Z,51.24
2022-11-17T02:02:58.011Z,69.13
2022-11-17T02:03:58.008Z,63.33
2022-11-17T02:04:58.015Z,72.83
2022-11-17T02:05:58.636Z,70.42
2022-11-17T02:06:58.708Z,61.87
2022-11-17T02:07:57.972Z,67.84
2022-11-17T02:08:57.959Z,62.36
2022-11-17T02:09:57.960Z,53.01
2022-11-17T02:10:59.559Z,53.66
2022-11-17T02:11:57.936Z,67.68
2022-11-17T02:12:58.028Z,52.05
2022-11-17T02:13:57.928Z,64.78
2022-11-17T02:14:57.914Z,65.58
2022-11-17T02:15:57.913Z,60.75
2022-11-17T02:17:03.028Z,66.87
2022-11-17T02:17:58.894Z,53.66
2022-11-17T02:18:57.883Z,68.32
2022-11-17T02:19:57.878Z,63.81
2022-11-17T02:20:57.870Z,60.59
2022-11-17T02:21:57.860Z,70.90
2022-11-17T02:22:57.856Z,51.88
2022-11-17T02:23:57.840Z,50.92
2022-11-17T02:24:58.831Z,53.17
2022-11-17T02:25:57.837Z,59.94
2022-11-17T02:26:57.817Z,58.17
2022-11-17T02:27:57.816Z,59.30
2022-11-17T02:28:57.901Z,59.46
2022-11-17T02:29:57.798Z,60.59
2022-11-17T02:30:57.796Z,59.14
2022-11-17T02:31:57.784Z,55.75
2022-11-17T02:32:57.772Z,65.42
2022-11-17T02:33:57.763Z,63.81
2022-11-17T02:34:57.759Z,58.65
2022-11-17T02:35:57.745Z,70.58
2022-11-17T02:36:57.752Z,61.87
2022-11-17T02:37:57.726Z,61.07
2022-11-17T02:38:57.720Z,61.23
2022-11-17T02:39:57.708Z,62.36
2022-11-17T02:40:57.708Z,68.32
2022-11-17T02:41:57.701Z,67.19
2022-11-17T02:42:57.690Z,62.84
2022-11-17T02:43:57.684Z,62.04
2022-11-17T02:44:58.736Z,60.59
2022-11-17T02:45:57.665Z,61.39
2022-11-17T02:46:57.662Z,67.68
2022-11-17T02:47:57.649Z,68.48
2022-11-17T02:48:58.146Z,68.96
2022-11-17T02:49:57.656Z,61.07
2022-11-17T02:50:57.626Z,61.07
2022-11-17T02:51:58.567Z,63.00
2022-11-17T02:52:57.602Z,67.68
2022-11-17T02:53:57.606Z,60.26
2022-11-17T02:54:57.595Z,62.68
2022-11-17T02:55:57.582Z,73.15
2022-11-17T02:56:57.577Z,67.03
2022-11-17T02:57:57.574Z,68.32
2022-11-17T02:58:57.562Z,69.93
2022-11-17T02:59:57.559Z,66.55
2022-11-17T03:00:57.636Z,67.19
2022-11-17T03:01:58.213Z,66.39
2022-11-17T03:02:57.526Z,68.80
2022-11-17T03:03:57.523Z,63.16
2022-11-17T03:04:57.500Z,58.65
2022-11-17T03:05:58.502Z,71.06
2022-11-17T03:06:57.522Z,62.84
2022-11-17T03:07:57.521Z,66.39
2022-11-17T03:08:57.486Z,65.10
2022-11-17T03:09:57.476Z,61.39
2022-11-17T03:10:57.468Z,61.71
2022-11-17T03:11:57.458Z,61.39
2022-11-17T03:12:57.474Z,58.01
2022-11-17T03:13:57.437Z,71.22
2022-11-17T03:14:57.439Z,63.81
2022-11-17T03:15:57.435Z,61.87
2022-11-17T03:16:57.429Z,63.49
2022-11-17T03:17:57.413Z,63.97
2022-11-17T03:18:57.415Z,72.19
2022-11-17T03:19:57.385Z,65.42
2022-11-17T03:20:58.082Z,59.78
2022-11-17T03:21:57.372Z,61.55
2022-11-17T03:22:57.366Z,69.45
2022-11-17T03:23:58.073Z,61.87
2022-11-17T03:24:57.370Z,65.10
2022-11-17T03:25:58.089Z,61.23
2022-11-17T03:28:44.945Z,66.06
2022-11-17T03:29:46.036Z,65.90
2022-11-17T03:30:46.017Z,66.87
2022-11-17T03:31:46.014Z,61.71
2022-11-17T03:32:46.095Z,66.39
2022-11-17T03:33:46.000Z,65.58
2022-11-17T03:34:45.993Z,56.72
2022-11-17T03:35:50.462Z,62.52
2022-11-17T03:36:46.965Z,65.90
2022-11-17T03:37:45.974Z,62.52
2022-11-17T03:38:45.956Z,64.61
2022-11-17T03:39:47.673Z,67.03
2022-11-17T03:40:45.937Z,66.39
2022-11-17T03:41:45.926Z,63.16
2022-11-17T03:42:45.916Z,69.45
2022-11-17T03:43:45.909Z,69.61
2022-11-17T03:44:45.888Z,61.39
2022-11-17T03:45:45.900Z,66.23
2022-11-17T03:46:47.670Z,64.29
2022-11-17T03:47:45.869Z,63.65
2022-11-17T03:48:45.956Z,62.36
2022-11-17T03:49:45.855Z,62.52
2022-11-17T03:50:45.864Z,64.45
2022-11-17T03:51:45.840Z,64.29
2022-11-17T03:52:45.841Z,68.16
2022-11-17T03:53:45.832Z,65.42
2022-11-17T03:54:45.823Z,72.03
2022-11-17T03:55:45.810Z,64.13
2022-11-17T03:56:45.808Z,68.00
2022-11-17T03:57:45.795Z,64.13
2022-11-17T03:58:45.805Z,71.06
2022-11-17T03:59:45.782Z,65.26
2022-11-17T04:00:45.775Z,63.33
2022-11-17T04:01:45.902Z,68.96
2022-11-17T04:02:45.757Z,63.33
2022-11-17T04:03:45.855Z,69.29
2022-11-17T04:04:45.755Z,65.90
2022-11-17T04:05:45.749Z,62.36
2022-11-17T04:06:45.734Z,65.90
2022-11-17T04:07:45.722Z,75.25
2022-11-17T04:08:45.715Z,68.00
2022-11-17T04:09:45.702Z,71.22
2022-11-17T04:10:46.599Z,68.96
2022-11-17T04:12:21.041Z,68.64
2022-11-17T04:12:45.681Z,61.71
2022-11-17T04:13:45.709Z,63.97
2022-11-17T04:14:45.656Z,68.48
2022-11-17T04:15:45.670Z,68.32
2022-11-17T04:16:45.642Z,68.00
2022-11-17T04:17:45.651Z,66.87
2022-11-17T04:18:45.632Z,68.32
2022-11-17T04:19:45.616Z,72.51
2022-11-17T04:20:45.710Z,76.38
2022-11-17T04:21:45.621Z,67.35
2022-11-17T04:22:45.613Z,71.38
2022-11-17T04:23:45.601Z,65.74
2022-11-17T04:24:46.232Z,69.13
2022-11-17T04:25:45.596Z,68.00
2022-11-17T04:26:45.605Z,71.54
2022-11-17T04:27:45.570Z,65.74
2022-11-17T04:28:46.220Z,70.74
2022-11-17T04:29:45.579Z,71.22
2022-11-17T04:30:45.566Z,67.68
2022-11-17T04:31:45.542Z,67.51
2022-11-17T04:32:45.538Z,66.39
2022-11-17T04:33:45.516Z,69.45
2022-11-17T04:34:45.510Z,70.90
2022-11-17T04:35:45.497Z,75.41
2022-11-17T04:36:45.513Z,69.61
2022-11-17T04:37:46.274Z,73.15
2022-11-17T04:38:45.491Z,73.96
2022-11-17T04:39:46.142Z,74.12
2022-11-17T04:40:45.454Z,72.03
2022-11-17T04:41:45.454Z,72.83
2022-11-17T04:42:45.445Z,69.45
2022-11-17T04:43:45.443Z,75.41
2022-11-17T04:44:45.464Z,71.54
2022-11-17T04:45:45.421Z,68.96
2022-11-17T04:46:45.408Z,71.22
2022-11-17T04:47:45.403Z,70.25
2022-11-17T04:48:45.408Z,74.60
2022-11-17T04:49:45.389Z,74.60
2022-11-17T04:50:45.391Z,75.57
2022-11-17T04:51:45.378Z,74.44
2022-11-17T04:52:45.456Z,73.80
2022-11-17T04:53:45.357Z,77.99
2022-11-17T04:54:45.349Z,72.19
2022-11-17T04:55:45.340Z,70.90
2022-11-17T04:56:45.335Z,69.93
2022-11-17T04:57:45.344Z,71.54
2022-11-17T04:58:45.319Z,75.41
2022-11-17T04:59:45.314Z,80.73
2022-11-17T05:00:45.295Z,73.32
2022-11-17T05:01:45.318Z,72.19
2022-11-17T05:02:46.249Z,73.64
2022-11-17T05:03:45.269Z,73.15
2022-11-17T05:04:45.271Z,75.89
2022-11-17T05:05:45.261Z,70.90
2022-11-17T05:06:46.248Z,74.44
2022-11-17T05:07:45.236Z,64.94
2022-11-17T05:08:45.240Z,68.48
2022-11-17T05:09:45.235Z,70.42
2022-11-17T05:10:45.274Z,73.32
2022-11-17T05:11:45.212Z,72.51
2022-11-17T05:12:45.205Z,70.25
2022-11-17T05:13:45.189Z,72.83
2022-11-17T05:14:45.198Z,72.83
2022-11-17T05:15:46.175Z,74.60
2022-11-17T05:16:45.167Z,72.83
2022-11-17T05:17:45.163Z,73.15
2022-11-17T05:18:45.186Z,77.02
2022-11-17T05:19:45.157Z,74.28
2022-11-17T05:20:45.139Z,75.57
2022-11-17T05:21:45.131Z,73.64
2022-11-17T05:22:45.120Z,73.80
2022-11-17T05:23:45.128Z,75.73
2022-11-17T05:24:45.205Z,71.54
2022-11-17T05:25:45.098Z,74.44
2022-11-17T05:26:45.100Z,74.93
2022-11-17T05:27:45.096Z,77.34
2022-11-17T05:28:45.083Z,75.25
2022-11-17T05:29:45.067Z,73.64
2022-11-17T05:30:45.057Z,77.34
2022-11-17T05:31:45.052Z,77.67
2022-11-17T05:32:45.051Z,72.35
2022-11-17T05:33:45.216Z,72.35
2022-11-17T05:34:46.033Z,74.44
2022-11-17T05:35:45.022Z,73.48
2022-11-17T05:36:45.019Z,71.54
2022-11-17T05:37:45.014Z,76.86
2022-11-17T05:38:45.005Z,70.42
2022-11-17T05:39:44.992Z,69.93
2022-11-17T05:40:45.085Z,70.58
2022-11-17T05:41:44.971Z,73.32
2022-11-17T05:42:44.966Z,72.67
2022-11-17T05:43:44.957Z,72.99
2022-11-17T05:44:45.651Z,76.54
2022-11-17T05:45:45.654Z,68.96
2022-11-17T05:46:44.934Z,70.74
2022-11-17T05:47:44.931Z,72.83
2022-11-17T05:48:45.920Z,72.35
2022-11-17T05:49:44.919Z,74.93
2022-11-17T05:52:51.200Z,75.89
2022-11-17T05:53:51.190Z,76.54
2022-11-17T05:54:52.047Z,74.77
2022-11-17T05:55:51.188Z,72.67
2022-11-17T05:56:51.167Z,69.45
2022-11-17T05:57:51.164Z,74.44
2022-11-17T05:58:51.151Z,74.28
2022-11-17T05:59:51.142Z,72.35
2022-11-17T06:00:51.145Z,72.35
2022-11-17T06:01:51.128Z,72.67
2022-11-17T06:02:51.137Z,73.32
2022-11-17T06:03:51.149Z,78.31
2022-11-17T06:04:51.101Z,76.70
2022-11-17T06:05:52.188Z,76.54
2022-11-17T06:06:52.198Z,76.22
2022-11-17T06:07:52.217Z,72.35
2022-11-17T06:08:52.167Z,73.80
2022-11-17T06:09:52.161Z,73.64
2022-11-17T06:10:52.153Z,74.28
2022-11-17T06:11:52.253Z,74.12
2022-11-17T06:12:52.149Z,74.12
2022-11-17T06:13:52.125Z,73.96
2022-11-17T06:14:52.120Z,76.86
2022-11-17T06:15:52.112Z,76.38
2022-11-17T06:16:52.105Z,73.32
2022-11-17T06:17:52.105Z,75.25
2022-11-17T06:18:52.082Z,78.47
2022-11-17T06:19:52.079Z,76.70
2022-11-17T06:20:52.069Z,78.15
2022-11-17T06:22:11.110Z,78.31
2022-11-17T06:22:54.055Z,76.22
2022-11-17T06:23:52.038Z,73.15
2022-11-17T06:24:53.645Z,77.18
2022-11-17T06:25:52.561Z,78.47
2022-11-17T06:26:52.013Z,72.83
2022-11-17T06:27:52.101Z,76.22
2022-11-17T06:28:52.014Z,77.18
2022-11-17T06:29:53.635Z,76.22
2022-11-17T06:30:51.993Z,75.57
2022-11-17T06:31:52.666Z,75.73
2022-11-17T06:32:51.987Z,76.70
2022-11-17T06:33:51.977Z,75.41
2022-11-17T06:34:55.626Z,75.41
2022-11-17T06:35:52.955Z,76.22
2022-11-17T06:36:52.650Z,73.64
2022-11-17T06:37:51.923Z,77.34
2022-11-17T06:38:51.931Z,75.73
2022-11-17T06:39:51.914Z,75.73
2022-11-17T06:40:51.918Z,74.44
2022-11-17T06:41:51.906Z,75.57
2022-11-17T06:42:51.910Z,75.09
2022-11-17T06:43:51.988Z,77.67
2022-11-17T06:44:51.880Z,77.34
2022-11-17T06:45:51.875Z,76.05
2022-11-17T06:48:59.217Z,77.67
2022-11-17T06:49:59.204Z,75.57
2022-11-17T06:50:59.198Z,74.93
2022-11-17T06:51:59.191Z,76.05
2022-11-17T06:53:00.329Z,77.83
2022-11-17T06:54:02.113Z,76.38
2022-11-17T06:55:00.419Z,75.09
2022-11-17T06:56:01.358Z,73.32
2022-11-17T06:57:01.162Z,76.86
2022-11-17T06:58:00.288Z,77.99
2022-11-17T07:01:07.676Z,76.38
2022-11-17T07:02:07.616Z,79.12
2022-11-17T07:03:07.614Z,78.15
2022-11-17T07:04:07.601Z,75.89
2022-11-17T07:05:07.585Z,76.38
2022-11-17T07:06:07.589Z,75.73
2022-11-17T07:07:07.624Z,75.73
2022-11-17T07:08:09.491Z,74.93
2022-11-17T07:09:07.557Z,71.54
2022-11-17T07:10:08.665Z,75.41
2022-11-17T07:11:08.665Z,74.28
2022-11-17T07:12:08.666Z,77.67
2022-11-17T07:13:09.507Z,72.83
2022-11-17T07:14:08.628Z,75.89
2022-11-17T07:15:08.626Z,74.93
2022-11-17T07:16:08.712Z,73.48
2022-11-17T07:17:08.616Z,76.22
2022-11-17T07:18:08.598Z,74.28
2022-11-17T07:19:08.587Z,77.67
2022-11-17T07:20:08.604Z,73.15
2022-11-17T07:21:08.572Z,80.57
2022-11-17T07:22:08.588Z,75.73
2022-11-17T07:23:09.098Z,73.80
2022-11-17T07:24:08.554Z,71.54
2022-11-17T07:25:08.534Z,74.77
2022-11-17T07:26:08.527Z,74.93
2022-11-17T07:27:08.524Z,75.41
2022-11-17T07:28:08.509Z,75.41
2022-11-17T07:29:08.511Z,73.64
2022-11-17T07:30:08.496Z,72.99
2022-11-17T07:31:08.487Z,73.80
2022-11-17T07:32:08.564Z,74.28
2022-11-17T07:33:08.487Z,74.93
2022-11-17T07:34:08.490Z,74.77
2022-11-17T07:35:08.993Z,75.09
2022-11-17T07:36:08.446Z,78.47
2022-11-17T07:37:08.440Z,73.96
2022-11-17T07:38:08.437Z,77.18
2022-11-17T07:39:08.421Z,77.83
2022-11-17T07:40:08.422Z,77.18
2022-11-17T07:41:08.427Z,75.41
2022-11-17T07:42:08.403Z,76.05
2022-11-17T07:43:08.409Z,77.83
2022-11-17T07:44:09.099Z,76.70
2022-11-17T07:45:08.382Z,76.38
2022-11-17T07:46:08.455Z,76.38
2022-11-17T07:47:10.149Z,77.02
2022-11-17T07:48:08.364Z,75.41
2022-11-17T07:49:08.342Z,77.50
2022-11-17T07:50:08.327Z,76.05
2022-11-17T07:51:08.328Z,76.86
2022-11-17T07:52:08.316Z,77.18
2022-11-17T07:53:08.302Z,78.96
2022-11-17T07:54:08.300Z,77.34
2022-11-17T07:55:08.285Z,77.67
2022-11-17T07:56:08.296Z,76.70
2022-11-17T07:57:08.276Z,74.28
2022-11-17T07:58:08.258Z,77.83
2022-11-17T07:59:08.262Z,74.28
2022-11-17T08:00:08.243Z,74.44
2022-11-17T08:01:08.314Z,74.60
2022-11-17T08:02:08.228Z,74.77
2022-11-17T08:03:08.228Z,77.18
2022-11-17T08:04:08.400Z,76.54
2022-11-17T08:05:08.204Z,76.22
2022-11-17T08:06:08.218Z,76.70
2022-11-17T08:07:08.220Z,73.64
2022-11-17T08:08:08.196Z,76.54
2022-11-17T08:09:08.168Z,74.77
2022-11-17T08:10:08.165Z,74.44
2022-11-17T08:11:08.151Z,77.18
2022-11-17T08:12:08.146Z,79.92
2022-11-17T08:13:08.128Z,72.83
2022-11-17T08:14:08.118Z,74.60
2022-11-17T08:15:08.112Z,74.28
2022-11-17T08:16:09.598Z,75.89
2022-11-17T08:17:08.104Z,75.57
2022-11-17T08:18:08.092Z,79.12
2022-11-17T08:19:08.123Z,74.12
2022-11-17T08:20:08.071Z,77.83
2022-11-17T08:21:08.074Z,75.09
2022-11-17T08:22:09.604Z,76.05
2022-11-17T08:23:08.056Z,75.25
2022-11-17T08:24:08.049Z,75.09
2022-11-17T08:25:08.051Z,77.34
2022-11-17T08:26:08.032Z,76.05
2022-11-17T08:27:08.019Z,75.89
2022-11-17T08:28:08.013Z,76.38
2022-11-17T08:29:08.008Z,77.18
2022-11-17T08:30:08.010Z,75.25
2022-11-17T08:31:08.004Z,75.89
2022-11-17T08:32:07.977Z,76.38
2022-11-17T08:33:07.987Z,78.96
2022-11-17T08:34:07.968Z,74.44
2022-11-17T08:35:07.951Z,72.83
2022-11-17T08:36:07.950Z,77.83
2022-11-17T08:37:08.612Z,77.34
2022-11-17T08:38:07.923Z,76.86
2022-11-17T08:39:07.922Z,75.25
2022-11-17T08:40:07.922Z,74.77
2022-11-17T08:41:09.523Z,75.25
2022-11-17T08:42:07.907Z,73.80
2022-11-17T08:43:07.889Z,78.79
2022-11-17T08:44:07.898Z,75.89
2022-11-17T08:45:07.872Z,75.57
2022-11-17T08:46:07.859Z,75.09
2022-11-17T08:47:07.848Z,76.05
2022-11-17T08:48:07.846Z,75.09
2022-11-17T08:49:07.834Z,73.48
2022-11-17T08:50:07.833Z,74.60
2022-11-17T08:51:07.816Z,75.89
2022-11-17T08:52:07.817Z,76.22
2022-11-17T08:53:07.804Z,73.64
2022-11-17T08:54:07.792Z,75.73
2022-11-17T08:55:08.582Z,76.54
2022-11-17T08:56:07.782Z,74.12
2022-11-17T08:57:09.704Z,73.32
2022-11-17T08:58:07.750Z,81.69
2022-11-17T08:59:07.757Z,74.93
2022-11-17T09:00:07.773Z,77.34
2022-11-17T09:01:07.780Z,74.60
2022-11-17T09:02:07.729Z,74.60
2022-11-17T09:03:07.724Z,75.57
2022-11-17T09:04:07.730Z,77.99
2022-11-17T09:05:10.516Z,73.32
2022-11-17T09:06:07.702Z,74.12
2022-11-17T09:07:07.781Z,74.93
2022-11-17T09:08:37.919Z,85.08
2022-11-17T09:09:09.706Z,87.01
2022-11-17T09:10:07.647Z,75.57
2022-11-17T09:11:07.638Z,76.05
2022-11-17T09:12:07.637Z,73.48
2022-11-17T09:13:07.622Z,74.77
2022-11-17T09:14:07.620Z,72.19
2022-11-17T09:15:07.645Z,75.09
2022-11-17T09:16:07.600Z,70.90
2022-11-17T09:17:09.033Z,72.67
2022-11-17T09:18:07.634Z,75.41
2022-11-17T09:19:07.569Z,74.12
2022-11-17T09:20:07.575Z,71.38
2022-11-17T09:21:10.109Z,73.64
2022-11-17T09:22:09.500Z,73.15
2022-11-17T09:23:07.545Z,73.32
2022-11-17T09:24:07.537Z,76.22
2022-11-17T09:25:12.976Z,72.99
2022-11-17T09:26:09.518Z,72.19
2022-11-17T09:27:07.503Z,74.12
2022-11-17T09:28:09.069Z,72.83
2022-11-17T09:29:07.486Z,72.03
2022-11-17T09:30:07.478Z,72.99
2022-11-17T09:31:08.548Z,77.99
2022-11-17T09:32:07.470Z,75.41
2022-11-17T09:33:07.458Z,74.12
2022-11-17T09:34:07.465Z,75.41
2022-11-17T09:35:07.443Z,74.93
2022-11-17T09:36:07.456Z,74.28
2022-11-17T09:37:07.435Z,74.60
2022-11-17T09:38:07.419Z,73.15
2022-11-17T09:39:07.451Z,73.48
2022-11-17T09:40:07.497Z,75.89
2022-11-17T09:41:07.412Z,72.83
2022-11-17T09:42:07.398Z,75.57
2022-11-17T09:43:07.378Z,74.12
2022-11-17T09:44:07.384Z,74.28
2022-11-17T09:45:07.358Z,71.54
2022-11-17T09:46:07.893Z,73.48
2022-11-17T09:47:08.393Z,72.51
2022-11-17T09:48:38.862Z,75.25
2022-11-17T09:49:09.329Z,74.60
2022-11-17T09:50:07.323Z,73.96
2022-11-17T09:51:07.307Z,77.50
2022-11-17T09:52:07.316Z,75.89
2022-11-17T09:53:07.297Z,77.83
2022-11-17T09:54:07.281Z,76.54
2022-11-17T09:55:07.285Z,72.35
2022-11-17T09:56:07.366Z,75.09
2022-11-17T09:57:07.261Z,73.64
2022-11-17T09:58:07.254Z,76.86
2022-11-17T09:59:07.241Z,73.64
2022-11-17T10:00:07.247Z,75.73
2022-11-17T10:01:07.240Z,72.67
2022-11-17T10:02:07.287Z,71.70
2022-11-17T10:03:07.214Z,75.25
2022-11-17T10:04:07.204Z,76.54
2022-11-17T10:05:07.196Z,76.38
2022-11-17T10:06:07.196Z,75.25
2022-11-17T10:07:08.138Z,75.09
2022-11-17T10:08:07.172Z,75.57
2022-11-17T10:09:07.172Z,74.44
2022-11-17T10:10:07.159Z,73.80
2022-11-17T10:11:08.015Z,76.86
2022-11-17T10:12:07.234Z,76.38
2022-11-17T10:13:08.111Z,74.12
2022-11-17T10:14:07.131Z,76.70
2022-11-17T10:17:15.807Z,78.96
2022-11-17T10:18:13.948Z,79.60
2022-11-17T10:19:13.955Z,76.54
2022-11-17T10:20:13.939Z,74.12
2022-11-17T10:21:13.923Z,75.89
2022-11-17T10:22:15.035Z,77.50
2022-11-17T10:23:15.022Z,75.73
2022-11-17T10:24:15.013Z,73.80
2022-11-17T10:25:15.008Z,75.41
2022-11-17T10:26:15.002Z,75.89
2022-11-17T10:27:15.076Z,76.22
2022-11-17T10:28:14.977Z,74.77
2022-11-17T10:29:14.979Z,76.54
2022-11-17T10:30:15.760Z,75.41
2022-11-17T10:31:15.012Z,75.89
2022-11-17T10:32:14.940Z,77.34
2022-11-17T10:33:14.937Z,77.02
2022-11-17T10:34:14.932Z,78.96
2022-11-17T10:35:15.951Z,77.50
2022-11-17T10:36:14.924Z,76.05
2022-11-17T10:37:14.910Z,76.86
2022-11-17T10:38:16.804Z,78.47
2022-11-17T10:39:17.829Z,78.31
2022-11-17T10:40:19.280Z,75.57
2022-11-17T10:41:15.873Z,76.05
2022-11-17T10:42:16.385Z,78.47
2022-11-17T10:43:15.858Z,76.70
2022-11-17T10:44:14.849Z,76.70
2022-11-17T10:45:14.840Z,75.89
2022-11-17T10:46:14.830Z,81.69
2022-11-17T10:47:14.820Z,76.54
2022-11-17T10:48:15.875Z,78.15
2022-11-17T10:49:14.828Z,74.77
2022-11-17T10:50:14.787Z,79.28
2022-11-17T10:51:15.796Z,76.05
2022-11-17T10:52:14.784Z,77.02
2022-11-17T10:53:14.775Z,75.41
2022-11-17T10:54:14.769Z,75.57
2022-11-17T10:55:14.757Z,77.18
2022-11-17T10:56:16.421Z,75.41
2022-11-17T10:57:14.770Z,75.41
2022-11-17T10:58:15.034Z,76.54
2022-11-17T10:59:14.734Z,73.32
2022-11-17T11:00:14.777Z,76.22
2022-11-17T11:01:14.754Z,74.93
2022-11-17T11:02:14.701Z,73.80
2022-11-17T11:03:14.702Z,74.60
2022-11-17T11:04:14.685Z,78.96
2022-11-17T11:05:15.687Z,77.18
2022-11-17T11:06:17.476Z,73.15
2022-11-17T11:07:15.693Z,73.96
2022-11-17T11:08:14.676Z,74.12
2022-11-17T11:09:14.655Z,75.57
2022-11-17T11:10:14.709Z,77.67
2022-11-17T11:11:14.957Z,73.48
2022-11-17T11:12:15.330Z,74.28
2022-11-17T11:13:14.615Z,75.89
2022-11-17T11:14:14.608Z,75.73
2022-11-17T11:15:14.595Z,74.77
2022-11-17T11:16:14.615Z,77.18
2022-11-17T11:19:20.887Z,73.32
2022-11-17T11:20:21.959Z,75.41
2022-11-17T11:21:22.816Z,73.32
2022-11-17T11:22:21.955Z,76.70
2022-11-17T11:23:22.737Z,74.28
2022-11-17T11:24:22.936Z,73.96
2022-11-17T11:25:21.987Z,74.93
2022-11-17T11:26:21.934Z,76.54
2022-11-17T11:27:22.341Z,76.86
2022-11-17T11:28:21.937Z,75.25
2022-11-17T11:29:21.898Z,73.15
2022-11-17T11:30:21.932Z,74.77
2022-11-17T11:31:21.888Z,74.60
2022-11-17T11:32:21.865Z,72.03
2022-11-17T11:33:21.871Z,76.54
2022-11-17T11:34:21.847Z,73.64
2022-11-17T11:35:21.845Z,73.96
2022-11-17T11:36:21.867Z,73.80
2022-11-17T11:37:22.324Z,74.12
2022-11-17T11:38:23.775Z,77.34
2022-11-17T11:39:21.811Z,74.60
2022-11-17T11:40:23.743Z,72.35
2022-11-17T11:41:21.783Z,71.54
2022-11-17T11:42:21.783Z,72.19
2022-11-17T11:43:22.771Z,73.64
2022-11-17T11:44:21.763Z,76.22
2022-11-17T11:45:21.752Z,72.99
2022-11-17T11:46:21.821Z,71.87
2022-11-17T11:47:21.749Z,74.28
2022-11-17T11:48:23.336Z,73.32
2022-11-17T11:49:21.726Z,69.61
2022-11-17T11:50:21.756Z,75.41
2022-11-17T11:51:22.229Z,75.09
2022-11-17T11:52:21.704Z,75.57
2022-11-17T11:53:21.692Z,76.22
2022-11-17T11:54:21.681Z,74.12
2022-11-17T11:55:23.323Z,72.35
2022-11-17T11:56:21.670Z,73.80
2022-11-17T11:57:21.657Z,75.73
2022-11-17T11:58:21.661Z,74.93
2022-11-17T11:59:21.645Z,71.70
2022-11-17T12:00:23.348Z,73.96
2022-11-17T12:01:21.621Z,74.12
2022-11-17T12:02:21.711Z,73.64
2022-11-17T12:03:21.691Z,76.22
2022-11-17T12:04:21.599Z,73.80
2022-11-17T12:05:21.619Z,74.12
2022-11-17T12:06:21.598Z,72.03
2022-11-17T12:07:22.666Z,72.03
2022-11-17T12:08:54.274Z,71.70
2022-11-17T12:09:21.597Z,68.64
2022-11-17T12:10:21.560Z,73.15
2022-11-17T12:11:21.612Z,72.35
2022-11-17T12:12:21.590Z,76.86
2022-11-17T12:13:21.514Z,74.28
2022-11-17T12:14:24.373Z,72.03
2022-11-17T12:15:21.901Z,72.03
2022-11-17T12:16:21.583Z,71.54
2022-11-17T12:17:21.485Z,73.48
2022-11-17T12:18:22.488Z,72.03
2022-11-17T12:19:23.287Z,78.96
2022-11-17T12:20:23.460Z,74.60
2022-11-17T12:21:24.255Z,77.99
2022-11-17T12:22:22.271Z,73.48
2022-11-17T12:23:21.445Z,77.02
2022-11-17T12:24:21.436Z,73.48
2022-11-17T12:25:21.442Z,71.22
2022-11-17T12:26:21.425Z,72.51
2022-11-17T12:27:21.424Z,72.83
2022-11-17T12:28:21.401Z,101.35
2022-11-17T12:29:21.404Z,99.90
2022-11-17T12:30:21.395Z,71.70
2022-11-17T12:31:22.416Z,70.58
2022-11-17T12:32:21.391Z,74.28
2022-11-17T12:35:27.658Z,79.92
2022-11-17T12:36:30.803Z,73.80
2022-11-17T12:37:27.637Z,73.15
2022-11-17T12:38:27.643Z,75.89
2022-11-17T12:39:27.634Z,76.38
2022-11-17T12:40:27.620Z,75.09
2022-11-17T12:41:27.623Z,74.12
2022-11-17T12:42:27.592Z,74.28
2022-11-17T12:43:27.600Z,74.77
2022-11-17T12:44:27.600Z,77.18
2022-11-17T12:45:41.670Z,74.93
2022-11-17T12:46:28.568Z,75.89
2022-11-17T12:47:28.534Z,72.83
2022-11-17T12:48:33.938Z,75.09
2022-11-17T12:51:54.278Z,76.70
2022-11-17T12:52:54.294Z,73.96
2022-11-17T12:53:54.260Z,76.22
2022-11-17T12:54:54.310Z,74.28
2022-11-17T12:55:54.259Z,76.05
2022-11-17T12:56:54.237Z,76.86
2022-11-17T12:57:54.261Z,73.80
2022-11-17T12:58:54.223Z,75.89
2022-11-17T12:59:56.155Z,73.96
2022-11-17T13:00:54.244Z,77.83
2022-11-17T13:01:54.215Z,73.32
2022-11-17T13:02:54.205Z,74.93
2022-11-17T13:03:54.179Z,76.70
2022-11-17T13:04:55.294Z,75.25
2022-11-17T13:06:19.852Z,77.50
2022-11-17T13:06:57.365Z,71.70
2022-11-17T13:07:55.258Z,72.83
2022-11-17T13:08:55.266Z,74.93
2022-11-17T13:09:55.272Z,73.48
2022-11-17T13:10:55.249Z,79.12
2022-11-17T13:11:55.222Z,74.77